createdAt,value
2019-04-01T00:00:10.671Z,13.5
2019-04-01T00:00:23.816Z,11.5
2019-04-01T00:00:35.949Z,12.1
2019-04-01T00:00:48.181Z,14.4
2019-04-01T00:01:00.347Z,12.5
2019-04-01T00:01:14.479Z,11.6
2019-04-01T00:01:26.641Z,8.4
2019-04-01T00:01:39.797Z,8.3
2019-04-01T00:01:51.936Z,10.4
2019-04-01T00:02:04.113Z,9.9
2019-04-01T00:02:16.306Z,10.9
2019-04-01T00:02:28.429Z,14.1
2019-04-01T00:02:40.578Z,12.3
2019-04-01T00:02:52.743Z,11.3
2019-04-01T00:03:04.896Z,12.2
2019-04-01T00:03:17.059Z,11.7
2019-04-01T00:03:29.308Z,10.7
2019-04-01T00:03:41.377Z,8.6
2019-04-01T00:03:53.568Z,7.4
2019-04-01T00:04:05.749Z,8.4
2019-04-01T00:04:17.882Z,6.8
2019-04-01T00:04:30.020Z,6.3
2019-04-01T00:04:42.188Z,7
2019-04-01T00:04:54.340Z,12.2
2019-04-01T00:05:06.478Z,13.3
2019-04-01T00:05:18.637Z,9.1
2019-04-01T00:05:30.782Z,7.5
2019-04-01T00:05:42.946Z,10.2
2019-04-01T00:05:55.083Z,13
2019-04-01T00:06:07.221Z,15.9
2019-04-01T00:06:19.346Z,13.5
2019-04-01T00:06:32.478Z,16.299999
2019-04-01T00:06:44.627Z,14.8
2019-04-01T00:06:56.826Z,10
2019-04-01T00:07:09.021Z,9.1
2019-04-01T00:07:21.158Z,10.6
2019-04-01T00:07:33.311Z,10
2019-04-01T00:07:46.449Z,9.9
2019-04-01T00:07:58.579Z,9.2
2019-04-01T00:08:11.715Z,10.3
2019-04-01T00:08:24.916Z,9.4
2019-04-01T00:08:37.061Z,7.8
2019-04-01T00:08:50.239Z,6.9
2019-04-01T00:09:02.406Z,6.3
2019-04-01T00:09:15.503Z,7.2
2019-04-01T00:09:27.675Z,10.3
2019-04-01T00:09:39.812Z,8.7
2019-04-01T00:09:51.930Z,8.5
2019-04-01T00:10:04.081Z,9
2019-04-01T00:10:16.219Z,7.9
2019-04-01T00:10:28.364Z,8.6
2019-04-01T00:10:40.503Z,8.1
2019-04-01T00:10:52.679Z,9.6
2019-04-01T00:11:04.825Z,12.7
2019-04-01T00:11:16.978Z,10.7
2019-04-01T00:11:29.111Z,10.5
2019-04-01T00:11:41.249Z,11.6
2019-04-01T00:11:53.412Z,10.3
2019-04-01T00:12:06.558Z,9.6
2019-04-01T00:12:18.694Z,7.3
2019-04-01T00:12:30.820Z,6.6
2019-04-01T00:12:43.963Z,7.4
2019-04-01T00:12:56.132Z,10
2019-04-01T00:13:08.310Z,10.3
2019-04-01T00:13:20.440Z,11.6
2019-04-01T00:13:32.569Z,10.7
2019-04-01T00:13:44.717Z,9.5
2019-04-01T00:13:56.862Z,9.6
2019-04-01T00:14:08.981Z,9.8
2019-04-01T00:14:22.130Z,14.3
2019-04-01T00:14:34.292Z,16.799999
2019-04-01T00:14:46.415Z,15.3
2019-04-01T00:14:58.531Z,9.6
2019-04-01T00:15:10.668Z,10.5
2019-04-01T00:15:22.798Z,13.6
2019-04-01T00:15:34.931Z,12
2019-04-01T00:15:47.096Z,15.9
2019-04-01T00:15:59.222Z,12
2019-04-01T00:16:11.357Z,7.2
2019-04-01T00:16:23.515Z,8.8
2019-04-01T00:16:35.689Z,8.5
2019-04-01T00:16:47.876Z,8.4
2019-04-01T00:17:00.059Z,9.1
2019-04-01T00:17:12.264Z,8.6
2019-04-01T00:17:24.429Z,7.3
2019-04-01T00:17:36.587Z,5.9
2019-04-01T00:17:48.738Z,7.5
2019-04-01T00:18:00.909Z,8.3
2019-04-01T00:18:13.065Z,9.5
2019-04-01T00:18:25.188Z,9.1
2019-04-01T00:18:37.356Z,8.9
2019-04-01T00:19:02.261Z,10.7
2019-04-01T00:19:08.598Z,12.6
2019-04-01T00:19:21.737Z,11
2019-04-01T00:19:33.883Z,7.8
2019-04-01T00:19:47.044Z,6.4
2019-04-01T00:19:59.228Z,9.3
2019-04-01T00:20:11.386Z,10.4
2019-04-01T00:20:23.521Z,11.9
2019-04-01T00:20:35.710Z,9.9
2019-04-01T00:20:47.865Z,11.3
2019-04-01T00:21:00.001Z,9.7
2019-04-01T00:21:12.134Z,7.2
2019-04-01T00:21:24.306Z,5.6
2019-04-01T00:21:36.436Z,7.7
2019-04-01T00:21:50.549Z,6.3
2019-04-01T00:22:02.678Z,6.9
2019-04-01T00:22:14.800Z,7.1
2019-04-01T00:22:26.936Z,9.3
2019-04-01T00:22:39.120Z,7.6
2019-04-01T00:22:51.336Z,8.3
2019-04-01T00:23:03.620Z,10.6
2019-04-01T00:23:15.628Z,14.3
2019-04-01T00:23:27.776Z,13.9
2019-04-01T00:23:39.927Z,10.6
2019-04-01T00:23:52.087Z,6.3
2019-04-01T00:24:04.220Z,7.7
2019-04-01T00:24:16.385Z,8.3
2019-04-01T00:24:28.536Z,9.1
2019-04-01T00:24:40.674Z,10.7
2019-04-01T00:24:52.821Z,11
2019-04-01T00:25:04.995Z,9.1
2019-04-01T00:25:17.117Z,13.3
2019-04-01T00:25:30.231Z,14.4
2019-04-01T00:25:42.370Z,14.2
2019-04-01T00:25:54.587Z,12.2
2019-04-01T00:26:06.697Z,16.6
2019-04-01T00:26:19.888Z,17.6
2019-04-01T00:26:32.031Z,11.2
2019-04-01T00:26:44.156Z,5.4
2019-04-01T00:26:56.315Z,7.8
2019-04-01T00:27:08.486Z,8.8
2019-04-01T00:27:20.620Z,9.9
2019-04-01T00:27:32.756Z,9.4
2019-04-01T00:27:45.928Z,10.2
2019-04-01T00:27:58.112Z,12.7
2019-04-01T00:28:10.295Z,8.5
2019-04-01T00:28:23.444Z,9
2019-04-01T00:28:35.584Z,8.3
2019-04-01T00:28:47.768Z,9.4
2019-04-01T00:28:59.906Z,8.6
2019-04-01T00:29:12.062Z,7.4
2019-04-01T00:29:24.227Z,9.1
2019-04-01T00:29:37.379Z,11.2
2019-04-01T00:29:49.512Z,9.1
2019-04-01T00:30:01.654Z,8.5
2019-04-01T00:30:14.841Z,7.1
2019-04-01T00:30:27.962Z,9.4
2019-04-01T00:30:40.115Z,10
2019-04-01T00:30:52.307Z,10
2019-04-01T00:31:05.438Z,9.9
2019-04-01T00:31:17.588Z,9.9
2019-04-01T00:31:30.701Z,9.5
2019-04-01T00:31:42.838Z,9.6
2019-04-01T00:31:54.977Z,9.7
2019-04-01T00:32:07.137Z,6.9
2019-04-01T00:32:19.293Z,8.1
2019-04-01T00:32:31.438Z,7.9
2019-04-01T00:32:44.572Z,6.4
2019-04-01T00:32:56.705Z,7
2019-04-01T00:33:08.866Z,7.1
2019-04-01T00:33:21.025Z,7
2019-04-01T00:33:33.160Z,6.8
2019-04-01T00:33:45.284Z,10.9
2019-04-01T00:33:57.421Z,13.3
2019-04-01T00:34:09.567Z,13.7
2019-04-01T00:34:21.739Z,13.9
2019-04-01T00:34:33.947Z,11.3
2019-04-01T00:34:46.068Z,10.6
2019-04-01T00:34:59.221Z,9.5
2019-04-01T00:35:11.354Z,7.4
2019-04-01T00:35:23.523Z,7.2
2019-04-01T00:35:35.676Z,8.9
2019-04-01T00:35:47.823Z,10.2
2019-04-01T00:35:59.961Z,12.4
2019-04-01T00:36:12.116Z,13.4
2019-04-01T00:36:24.264Z,12.3
2019-04-01T00:36:36.416Z,10.5
2019-04-01T00:36:48.543Z,9
2019-04-01T00:37:00.692Z,9.8
2019-04-01T00:37:12.853Z,8.2
2019-04-01T00:37:24.989Z,8.6
2019-04-01T00:37:37.123Z,9.7
2019-04-01T00:37:49.333Z,12.3
2019-04-01T00:38:01.541Z,15.5
2019-04-01T00:38:13.712Z,18.299999
2019-04-01T00:38:25.862Z,13.3
2019-04-01T00:38:38.009Z,10.5
2019-04-01T00:38:50.167Z,9
2019-04-01T00:39:02.303Z,9
2019-04-01T00:39:14.482Z,9.3
2019-04-01T00:39:26.640Z,11.1
2019-04-01T00:39:38.782Z,12.9
2019-04-01T00:39:50.939Z,13.4
2019-04-01T00:40:03.095Z,10.1
2019-04-01T00:40:15.239Z,8.1
2019-04-01T00:40:27.430Z,5.4
2019-04-01T00:40:39.617Z,8.2
2019-04-01T00:40:51.824Z,9
2019-04-01T00:41:04.999Z,9.5
2019-04-01T00:41:17.166Z,10
2019-04-01T00:41:29.313Z,7.8
2019-04-01T00:41:41.522Z,8.3
2019-04-01T00:41:53.645Z,9.5
2019-04-01T00:42:05.821Z,10.9
2019-04-01T00:42:18.055Z,14.5
2019-04-01T00:42:30.216Z,12.3
2019-04-01T00:42:42.369Z,12.4
2019-04-01T00:42:54.512Z,11.9
2019-04-01T00:43:06.664Z,14.6
2019-04-01T00:43:18.867Z,12.7
2019-04-01T00:43:31.035Z,11.8
2019-04-01T00:43:44.201Z,11
2019-04-01T00:43:56.345Z,8.2
2019-04-01T00:44:08.508Z,8.6
2019-04-01T00:44:20.643Z,7.8
2019-04-01T00:44:32.771Z,7.1
2019-04-01T00:44:46.920Z,9.3
2019-04-01T00:44:59.035Z,12.8
2019-04-01T00:45:11.175Z,10.7
2019-04-01T00:45:24.132Z,8
2019-04-01T00:45:36.296Z,11
2019-04-01T00:45:48.564Z,10.8
2019-04-01T00:46:00.795Z,7.6
2019-04-01T00:46:12.866Z,7.2
2019-04-01T00:46:25.060Z,11.3
2019-04-01T00:46:37.173Z,11.9
2019-04-01T00:46:49.369Z,12
2019-04-01T00:47:01.537Z,13.8
2019-04-01T00:47:14.689Z,12.5
2019-04-01T00:47:26.851Z,8.8
2019-04-01T00:47:39.033Z,8.7
2019-04-01T00:47:51.193Z,10.6
2019-04-01T00:48:04.342Z,11.4
2019-04-01T00:48:16.505Z,10.8
2019-04-01T00:48:28.705Z,13.1
2019-04-01T00:48:40.829Z,13.5
2019-04-01T00:48:52.982Z,11.6
2019-04-01T00:49:05.121Z,11.4
2019-04-01T00:49:17.262Z,12.4
2019-04-01T00:49:29.435Z,10.7
2019-04-01T00:49:41.586Z,9.8
2019-04-01T00:49:53.730Z,8.6
2019-04-01T00:50:05.895Z,9.8
2019-04-01T00:50:18.097Z,11
2019-04-01T00:50:30.208Z,12.4
2019-04-01T00:50:42.369Z,12.8
2019-04-01T00:50:54.506Z,13.2
2019-04-01T00:51:06.634Z,12
2019-04-01T00:51:19.753Z,8.7
2019-04-01T00:51:31.887Z,12.5
2019-04-01T00:51:44.029Z,11.6
2019-04-01T00:51:56.218Z,6.9
2019-04-01T00:52:10.315Z,7.9
2019-04-01T00:52:22.428Z,11.1
2019-04-01T00:52:34.564Z,10.1
2019-04-01T00:52:46.693Z,11.5
2019-04-01T00:52:58.827Z,9
2019-04-01T00:53:10.941Z,11.2
2019-04-01T00:53:25.084Z,14.4
2019-04-01T00:53:37.235Z,17.9
2019-04-01T00:53:49.373Z,14.3
2019-04-01T00:54:01.520Z,12.2
2019-04-01T00:54:13.654Z,12.7
2019-04-01T00:54:26.793Z,13
2019-04-01T00:54:38.924Z,10.9
2019-04-01T00:54:51.098Z,10.2
2019-04-01T00:55:03.249Z,7.5
2019-04-01T00:55:15.387Z,9.2
2019-04-01T00:55:27.547Z,8.3
2019-04-01T00:55:39.737Z,8.3
2019-04-01T00:55:51.911Z,7.5
2019-04-01T00:56:04.035Z,7.7
2019-04-01T00:56:16.171Z,6.5
2019-04-01T00:56:28.306Z,8.4
2019-04-01T00:56:40.465Z,10.9
2019-04-01T00:56:52.638Z,12.1
2019-04-01T00:57:04.823Z,8.2
2019-04-01T00:57:16.945Z,6.2
2019-04-01T00:57:29.067Z,5.8
2019-04-01T00:57:41.186Z,8.5
2019-04-01T00:57:54.321Z,8.2
2019-04-01T00:58:06.469Z,8.5
2019-04-01T00:58:18.657Z,8.8
2019-04-01T00:58:32.816Z,8.7
2019-04-01T00:58:45.002Z,7.1
2019-04-01T00:58:57.134Z,10.2
2019-04-01T00:59:09.305Z,15.3
2019-04-01T00:59:21.482Z,15.1
2019-04-01T00:59:33.632Z,14.3
2019-04-01T00:59:45.793Z,9.9
2019-04-01T00:59:57.972Z,8.6
2019-04-01T01:00:10.094Z,6.9
2019-04-01T01:00:22.261Z,10.9
2019-04-01T01:00:34.445Z,12.2
2019-04-01T01:00:46.565Z,15.5
2019-04-01T01:00:59.723Z,14.3
2019-04-01T01:01:11.872Z,10.5
2019-04-01T01:01:24.048Z,10.6
2019-04-01T01:01:37.195Z,7.7
2019-04-01T01:01:49.362Z,11.9
2019-04-01T01:02:01.507Z,9.8
2019-04-01T01:02:13.661Z,9.1
2019-04-01T01:02:25.799Z,9.4
2019-04-01T01:02:38.943Z,10.4
2019-04-01T01:02:52.100Z,10.1
2019-04-01T01:03:04.253Z,10.3
2019-04-01T01:03:17.395Z,11.2
2019-04-01T01:03:29.532Z,10
2019-04-01T01:03:41.667Z,11.5
2019-04-01T01:03:54.789Z,12.8
2019-04-01T01:04:07.924Z,13.2
2019-04-01T01:04:20.103Z,11.1
2019-04-01T01:04:32.230Z,10.1
2019-04-01T01:04:44.401Z,9.1
2019-04-01T01:04:56.567Z,10.7
2019-04-01T01:05:08.694Z,9.8
2019-04-01T01:05:20.863Z,9
2019-04-01T01:05:33.025Z,8.7
2019-04-01T01:05:45.219Z,10.2
2019-04-01T01:05:57.449Z,8.6
2019-04-01T01:06:09.602Z,7.5
2019-04-01T01:06:21.733Z,6.6
2019-04-01T01:06:34.926Z,11.1
2019-04-01T01:06:47.023Z,11.9
2019-04-01T01:06:59.175Z,11.3
2019-04-01T01:07:11.313Z,9.9
2019-04-01T01:07:24.422Z,8.8
2019-04-01T01:07:36.559Z,7.2
2019-04-01T01:07:49.665Z,8.1
2019-04-01T01:08:01.787Z,12.3
2019-04-01T01:08:13.928Z,13.9
2019-04-01T01:08:26.069Z,11.6
2019-04-01T01:08:38.229Z,8.7
2019-04-01T01:08:50.389Z,5.3
2019-04-01T01:09:02.573Z,7.5
2019-04-01T01:09:14.708Z,9.7
2019-04-01T01:09:26.858Z,12
2019-04-01T01:09:39.993Z,10.1
2019-04-01T01:09:53.110Z,8.9
2019-04-01T01:10:05.231Z,10.7
2019-04-01T01:10:17.364Z,9.1
2019-04-01T01:10:29.505Z,6.3
2019-04-01T01:10:41.637Z,7.6
2019-04-01T01:10:53.825Z,10.5
2019-04-01T01:11:05.975Z,10.5
2019-04-01T01:11:18.128Z,8
2019-04-01T01:11:30.288Z,9.4
2019-04-01T01:11:42.458Z,10.4
2019-04-01T01:11:54.604Z,10
2019-04-01T01:12:06.790Z,11.6
2019-04-01T01:12:18.950Z,13.6
2019-04-01T01:12:31.076Z,12.3
2019-04-01T01:12:43.193Z,6.8
2019-04-01T01:12:56.309Z,8.9
2019-04-01T01:13:08.461Z,8.5
2019-04-01T01:13:21.625Z,9.6
2019-04-01T01:13:33.787Z,13.8
2019-04-01T01:13:45.949Z,13
2019-04-01T01:13:58.118Z,10.1
2019-04-01T01:14:10.311Z,10.7
2019-04-01T01:14:22.486Z,10.9
2019-04-01T01:14:34.617Z,13
2019-04-01T01:14:46.777Z,9.5
2019-04-01T01:14:58.920Z,9.9
2019-04-01T01:15:11.067Z,9.5
2019-04-01T01:15:23.188Z,8.8
2019-04-01T01:15:35.344Z,8.7
2019-04-01T01:15:47.502Z,12.5
2019-04-01T01:15:59.719Z,12.8
2019-04-01T01:16:11.831Z,10.6
2019-04-01T01:16:23.963Z,9.5
2019-04-01T01:16:36.096Z,7.3
2019-04-01T01:16:48.218Z,8.3
2019-04-01T01:17:00.345Z,7.2
2019-04-01T01:17:12.489Z,7.3
2019-04-01T01:17:24.638Z,9.1
2019-04-01T01:17:36.882Z,13.6
2019-04-01T01:17:49.000Z,14.7
2019-04-01T01:18:01.151Z,11.2
2019-04-01T01:18:13.336Z,9
2019-04-01T01:18:25.480Z,9.4
2019-04-01T01:18:37.605Z,8.7
2019-04-01T01:18:49.744Z,9.7
2019-04-01T01:19:01.903Z,10.1
2019-04-01T01:19:14.135Z,9.7
2019-04-01T01:19:26.215Z,8.9
2019-04-01T01:19:38.396Z,9.3
2019-04-01T01:19:50.546Z,10.9
2019-04-01T01:20:02.658Z,9.6
2019-04-01T01:20:15.854Z,8.7
2019-04-01T01:20:28.021Z,13
2019-04-01T01:20:42.931Z,12.7
2019-04-01T01:20:55.111Z,7.5
2019-04-01T01:21:08.233Z,11.1
2019-04-01T01:21:21.345Z,11.9
2019-04-01T01:21:34.508Z,10.8
2019-04-01T01:21:46.660Z,9.8
2019-04-01T01:21:58.803Z,11.7
2019-04-01T01:22:10.986Z,9.7
2019-04-01T01:22:23.130Z,9.2
2019-04-01T01:22:35.279Z,9.2
2019-04-01T01:22:47.440Z,10.5
2019-04-01T01:22:59.595Z,11.3
2019-04-01T01:23:11.759Z,10.2
2019-04-01T01:23:23.869Z,11.5
2019-04-01T01:23:36.004Z,9.6
2019-04-01T01:23:48.142Z,10.9
2019-04-01T01:24:00.316Z,13.6
2019-04-01T01:24:13.477Z,13.6
2019-04-01T01:24:26.641Z,13.6
2019-04-01T01:24:40.759Z,8.7
2019-04-01T01:24:52.895Z,10.5
2019-04-01T01:25:05.039Z,10
2019-04-01T01:25:17.190Z,12
2019-04-01T01:25:29.312Z,10.8
2019-04-01T01:25:41.465Z,10.9
2019-04-01T01:25:54.629Z,8.2
2019-04-01T01:26:06.852Z,11
2019-04-01T01:26:18.989Z,12.2
2019-04-01T01:26:31.144Z,10.8
2019-04-01T01:26:43.305Z,9.1
2019-04-01T01:26:55.459Z,7.8
2019-04-01T01:27:08.622Z,10.1
2019-04-01T01:27:20.769Z,14.4
2019-04-01T01:27:32.930Z,15.2
2019-04-01T01:27:45.091Z,13
2019-04-01T01:27:57.235Z,11.5
2019-04-01T01:28:09.395Z,12.6
2019-04-01T01:28:21.543Z,12.9
2019-04-01T01:28:33.701Z,10.6
2019-04-01T01:28:45.860Z,12
2019-04-01T01:28:58.005Z,11.5
2019-04-01T01:29:11.145Z,12.2
2019-04-01T01:29:23.322Z,9.9
2019-04-01T01:29:35.485Z,8.2
2019-04-01T01:29:47.609Z,8.8
2019-04-01T01:29:59.793Z,11.5
2019-04-01T01:30:11.985Z,12.3
2019-04-01T01:30:24.126Z,9.7
2019-04-01T01:30:36.280Z,8.8
2019-04-01T01:30:48.427Z,6.8
2019-04-01T01:31:00.600Z,7.9
2019-04-01T01:31:12.725Z,9.4
2019-04-01T01:31:24.852Z,9.9
2019-04-01T01:31:37.053Z,12.8
2019-04-01T01:31:49.185Z,13.7
2019-04-01T01:32:01.334Z,9.3
2019-04-01T01:32:14.503Z,10
2019-04-01T01:32:26.670Z,8.7
2019-04-01T01:32:39.838Z,7.4
2019-04-01T01:32:52.010Z,8.2
2019-04-01T01:33:04.155Z,9.7
2019-04-01T01:33:17.276Z,14.3
2019-04-01T01:33:30.423Z,12.1
2019-04-01T01:33:43.581Z,9.8
2019-04-01T01:33:55.796Z,8.6
2019-04-01T01:34:07.961Z,8.8
2019-04-01T01:34:20.083Z,9.8
2019-04-01T01:34:32.202Z,9
2019-04-01T01:34:44.377Z,8.3
2019-04-01T01:34:56.495Z,7.6
2019-04-01T01:35:09.635Z,10.1
2019-04-01T01:35:21.761Z,10.7
2019-04-01T01:35:33.875Z,8.4
2019-04-01T01:35:46.003Z,9.4
2019-04-01T01:35:58.149Z,7.7
2019-04-01T01:36:11.256Z,6.4
2019-04-01T01:36:23.414Z,5.9
2019-04-01T01:36:35.567Z,6.6
2019-04-01T01:36:47.698Z,10.5
2019-04-01T01:36:59.838Z,9.9
2019-04-01T01:37:11.979Z,10.7
2019-04-01T01:37:24.138Z,8.2
2019-04-01T01:37:36.293Z,10.2
2019-04-01T01:37:49.423Z,10.7
2019-04-01T01:38:01.564Z,10.3
2019-04-01T01:38:14.717Z,9.4
2019-04-01T01:38:26.859Z,9.3
2019-04-01T01:38:39.009Z,7.7
2019-04-01T01:38:51.207Z,9.2
2019-04-01T01:39:03.332Z,9.5
2019-04-01T01:39:16.449Z,10.9
2019-04-01T01:39:28.576Z,9.7
2019-04-01T01:39:40.749Z,10
2019-04-01T01:39:52.901Z,9.4
2019-04-01T01:40:05.048Z,7
2019-04-01T01:40:17.166Z,9
2019-04-01T01:40:30.295Z,11.5
2019-04-01T01:40:42.418Z,13.4
2019-04-01T01:40:54.539Z,11.2
2019-04-01T01:41:07.969Z,13.6
2019-04-01T01:41:20.104Z,12.8
2019-04-01T01:41:32.251Z,11.6
2019-04-01T01:41:44.442Z,12
2019-04-01T01:41:57.598Z,10
2019-04-01T01:42:09.734Z,8.9
2019-04-01T01:42:21.868Z,6.7
2019-04-01T01:42:34.027Z,8.6
2019-04-01T01:42:47.145Z,12.9
2019-04-01T01:42:59.274Z,11.6
2019-04-01T01:43:11.488Z,9.3
2019-04-01T01:43:23.639Z,10.1
2019-04-01T01:43:36.772Z,8.7
2019-04-01T01:43:49.912Z,12.3
2019-04-01T01:44:02.041Z,13.3
2019-04-01T01:44:14.233Z,12.9
2019-04-01T01:44:26.363Z,9.6
2019-04-01T01:44:38.489Z,11.3
2019-04-01T01:44:50.626Z,11.1
2019-04-01T01:45:02.759Z,9
2019-04-01T01:45:14.896Z,8.6
2019-04-01T01:45:27.815Z,8.3
2019-04-01T01:45:39.926Z,7.8
2019-04-01T01:45:52.082Z,7.9
2019-04-01T01:46:04.231Z,8.2
2019-04-01T01:46:16.388Z,8.5
2019-04-01T01:46:28.535Z,8.8
2019-04-01T01:46:40.714Z,9.2
2019-04-01T01:46:53.843Z,9.4
2019-04-01T01:47:06.038Z,8.5
2019-04-01T01:47:19.174Z,9
2019-04-01T01:47:31.325Z,10.2
2019-04-01T01:47:43.531Z,12.8
2019-04-01T01:47:55.664Z,12.2
2019-04-01T01:48:08.788Z,10.2
2019-04-01T01:48:20.913Z,11.2
2019-04-01T01:48:33.071Z,12.8
2019-04-01T01:48:45.211Z,12.4
2019-04-01T01:48:58.349Z,10.9
2019-04-01T01:49:10.496Z,7
2019-04-01T01:49:23.629Z,6.6
2019-04-01T01:49:35.795Z,9.4
2019-04-01T01:49:48.010Z,13.2
2019-04-01T01:50:00.361Z,13.2
2019-04-01T01:50:12.310Z,12.2
2019-04-01T01:50:24.454Z,10.8
2019-04-01T01:50:36.616Z,14.1
2019-04-01T01:50:48.756Z,11.9
2019-04-01T01:51:00.922Z,10.6
2019-04-01T01:51:13.069Z,9
2019-04-01T01:51:25.236Z,12.9
2019-04-01T01:51:37.399Z,12.6
2019-04-01T01:51:49.538Z,9
2019-04-01T01:52:01.698Z,9.1
2019-04-01T01:52:13.837Z,8.8
2019-04-01T01:52:26.000Z,11.1
2019-04-01T01:52:38.141Z,13.7
2019-04-01T01:52:50.284Z,16.700001
2019-04-01T01:53:02.444Z,17.299999
2019-04-01T01:53:14.565Z,15.2
2019-04-01T01:53:26.770Z,13.7
2019-04-01T01:53:41.578Z,14.1
2019-04-01T01:53:52.997Z,11.8
2019-04-01T01:54:05.125Z,7.9
2019-04-01T01:54:17.288Z,9.1
2019-04-01T01:54:29.408Z,12.1
2019-04-01T01:54:41.578Z,10.2
2019-04-01T01:54:54.728Z,10.3
2019-04-01T01:55:06.885Z,10.3
2019-04-01T01:55:19.039Z,11.9
2019-04-01T01:55:31.215Z,9.4
2019-04-01T01:55:43.368Z,10.2
2019-04-01T01:55:55.539Z,9.7
2019-04-01T01:56:07.694Z,8
2019-04-01T01:56:20.869Z,5.6
2019-04-01T01:56:33.038Z,8.7
2019-04-01T01:56:45.222Z,8.1
2019-04-01T01:56:57.366Z,8.3
2019-04-01T01:57:09.496Z,8.5
2019-04-01T01:57:22.629Z,9.1
2019-04-01T01:57:34.753Z,8.4
2019-04-01T01:57:46.923Z,10.6
2019-04-01T01:57:59.067Z,12.7
2019-04-01T01:58:12.195Z,13.3
2019-04-01T01:58:24.317Z,9.7
2019-04-01T01:58:36.449Z,8
2019-04-01T01:58:48.601Z,7.7
2019-04-01T01:59:00.745Z,9.8
2019-04-01T01:59:12.882Z,11.8
2019-04-01T01:59:25.037Z,18.299999
2019-04-01T01:59:37.185Z,16.5
2019-04-01T01:59:49.376Z,10.8
2019-04-01T02:00:01.509Z,10.3
2019-04-01T02:00:13.654Z,8.3
2019-04-01T02:00:25.806Z,7.9
2019-04-01T02:00:37.957Z,12.9
2019-04-01T02:00:50.118Z,16.200001
2019-04-01T02:01:02.596Z,16.4
2019-04-01T02:01:14.775Z,12.1
2019-04-01T02:01:26.916Z,11.3
2019-04-01T02:01:39.058Z,10.4
2019-04-01T02:01:52.171Z,10
2019-04-01T02:02:04.316Z,8.5
2019-04-01T02:02:16.447Z,10.4
2019-04-01T02:02:28.579Z,10.8
2019-04-01T02:02:40.800Z,10.5
2019-04-01T02:02:52.960Z,11.5
2019-04-01T02:03:05.082Z,8.2
2019-04-01T02:03:18.237Z,9.9
2019-04-01T02:03:30.354Z,10.8
2019-04-01T02:03:42.470Z,8.5
2019-04-01T02:03:54.596Z,9.2
2019-04-01T02:04:06.741Z,10.1
2019-04-01T02:04:18.859Z,11.9
2019-04-01T02:04:31.000Z,14.2
2019-04-01T02:04:43.146Z,12.7
2019-04-01T02:04:55.304Z,9.7
2019-04-01T02:05:07.435Z,8.4
2019-04-01T02:05:20.572Z,7
2019-04-01T02:05:32.697Z,7.3
2019-04-01T02:05:44.831Z,7.5
2019-04-01T02:05:56.984Z,9.6
2019-04-01T02:06:09.133Z,9.7
2019-04-01T02:06:22.302Z,9
2019-04-01T02:06:34.494Z,9.5
2019-04-01T02:06:46.641Z,9.7
2019-04-01T02:06:58.781Z,7.5
2019-04-01T02:07:11.924Z,8.8
2019-04-01T02:07:24.069Z,9.9
2019-04-01T02:07:36.243Z,13.8
2019-04-01T02:07:48.387Z,15.2
2019-04-01T02:08:00.550Z,10.9
2019-04-01T02:08:12.695Z,7.8
2019-04-01T02:08:25.853Z,9
2019-04-01T02:08:38.025Z,9.7
2019-04-01T02:08:50.176Z,11.3
2019-04-01T02:09:02.336Z,14.9
2019-04-01T02:09:14.507Z,16.1
2019-04-01T02:09:26.645Z,16
2019-04-01T02:09:38.803Z,12.4
2019-04-01T02:09:50.993Z,11.5
2019-04-01T02:10:03.155Z,10
2019-04-01T02:10:15.335Z,7.6
2019-04-01T02:10:27.464Z,10
2019-04-01T02:10:39.618Z,9.1
2019-04-01T02:10:52.769Z,6.1
2019-04-01T02:11:04.934Z,6.9
2019-04-01T02:11:18.059Z,10.1
2019-04-01T02:11:30.193Z,9.9
2019-04-01T02:11:42.335Z,5.4
2019-04-01T02:11:54.499Z,8.2
2019-04-01T02:12:06.652Z,9.3
2019-04-01T02:12:18.820Z,10.8
2019-04-01T02:12:30.979Z,10.4
2019-04-01T02:12:43.142Z,11.9
2019-04-01T02:12:55.255Z,9.1
2019-04-01T02:13:07.383Z,12.3
2019-04-01T02:13:21.512Z,10.1
2019-04-01T02:13:34.681Z,6.6
2019-04-01T02:13:46.836Z,6.5
2019-04-01T02:13:58.989Z,7.8
2019-04-01T02:14:11.144Z,10
2019-04-01T02:14:23.272Z,10.5
2019-04-01T02:14:35.475Z,10.8
2019-04-01T02:14:47.606Z,9.8
2019-04-01T02:14:59.760Z,9.9
2019-04-01T02:15:11.963Z,10.1
2019-04-01T02:15:24.116Z,9.4
2019-04-01T02:15:36.292Z,9.4
2019-04-01T02:15:48.450Z,9.9
2019-04-01T02:16:01.569Z,11.2
2019-04-01T02:16:13.748Z,13.8
2019-04-01T02:16:25.880Z,13.3
2019-04-01T02:16:38.009Z,12.4
2019-04-01T02:16:50.178Z,9.8
2019-04-01T02:17:02.317Z,10
2019-04-01T02:17:14.467Z,8.1
2019-04-01T02:17:26.666Z,10
2019-04-01T02:17:38.817Z,8.7
2019-04-01T02:17:51.960Z,7.6
2019-04-01T02:18:04.085Z,8.7
2019-04-01T02:18:16.243Z,11.9
2019-04-01T02:18:28.403Z,13
2019-04-01T02:18:40.530Z,12.2
2019-04-01T02:18:52.675Z,16
2019-04-01T02:19:04.817Z,19
2019-04-01T02:19:16.951Z,14.3
2019-04-01T02:19:30.066Z,9.9
2019-04-01T02:19:42.273Z,9.2
2019-04-01T02:19:54.417Z,11.9
2019-04-01T02:20:06.572Z,13.6
2019-04-01T02:20:18.722Z,12
2019-04-01T02:20:30.896Z,10.5
2019-04-01T02:20:43.040Z,11.5
2019-04-01T02:20:55.168Z,10.3
2019-04-01T02:21:07.308Z,10.6
2019-04-01T02:21:19.447Z,11.2
2019-04-01T02:21:31.610Z,13.3
2019-04-01T02:21:43.764Z,13.8
2019-04-01T02:21:55.937Z,14.6
2019-04-01T02:22:08.116Z,10.9
2019-04-01T02:22:21.262Z,9.7
2019-04-01T02:22:33.405Z,10.3
2019-04-01T02:22:45.567Z,14.8
2019-04-01T02:22:57.693Z,14.2
2019-04-01T02:23:10.832Z,11.2
2019-04-01T02:23:22.996Z,8.3
2019-04-01T02:23:35.117Z,8.3
2019-04-01T02:23:47.284Z,10.6
2019-04-01T02:23:59.412Z,11.2
2019-04-01T02:24:11.556Z,7.6
2019-04-01T02:24:24.707Z,9.4
2019-04-01T02:24:36.854Z,9.2
2019-04-01T02:24:48.989Z,11.5
2019-04-01T02:25:01.169Z,8.9
2019-04-01T02:25:13.309Z,9.9
2019-04-01T02:25:25.437Z,8.8
2019-04-01T02:25:37.592Z,7.7
2019-04-01T02:25:49.754Z,8.8
2019-04-01T02:26:01.859Z,8.4
2019-04-01T02:26:14.028Z,10.7
2019-04-01T02:26:26.205Z,11.6
2019-04-01T02:26:39.279Z,12.2
2019-04-01T02:26:52.409Z,10
2019-04-01T02:27:04.540Z,10.9
2019-04-01T02:27:16.690Z,11.3
2019-04-01T02:27:28.855Z,13.2
2019-04-01T02:27:41.022Z,13.6
2019-04-01T02:27:53.161Z,10.1
2019-04-01T02:28:05.302Z,8.1
2019-04-01T02:28:18.453Z,6
2019-04-01T02:28:30.597Z,6.6
2019-04-01T02:28:42.747Z,6.9
2019-04-01T02:28:54.914Z,12.9
2019-04-01T02:29:07.046Z,13.6
2019-04-01T02:29:19.206Z,10.6
2019-04-01T02:29:31.407Z,9.8
2019-04-01T02:29:43.544Z,8.5
2019-04-01T02:29:55.743Z,10.3
2019-04-01T02:30:07.908Z,11
2019-04-01T02:30:20.047Z,8.7
2019-04-01T02:30:32.199Z,10.7
2019-04-01T02:30:44.346Z,11.8
2019-04-01T02:30:56.497Z,13.5
2019-04-01T02:31:08.659Z,13
2019-04-01T02:31:20.775Z,12.6
2019-04-01T02:31:32.918Z,8.8
2019-04-01T02:31:45.039Z,8.3
2019-04-01T02:31:57.176Z,8
2019-04-01T02:32:09.319Z,9.4
2019-04-01T02:32:21.462Z,9.2
2019-04-01T02:32:34.584Z,12
2019-04-01T02:32:46.727Z,11.9
2019-04-01T02:32:58.845Z,9
2019-04-01T02:33:11.968Z,8.5
2019-04-01T02:33:24.109Z,9
2019-04-01T02:33:36.291Z,8.8
2019-04-01T02:33:48.483Z,7.2
2019-04-01T02:34:01.587Z,9.4
2019-04-01T02:34:13.737Z,10.7
2019-04-01T02:34:25.867Z,10.6
2019-04-01T02:34:38.091Z,10
2019-04-01T02:34:50.232Z,10.2
2019-04-01T02:35:02.385Z,10.2
2019-04-01T02:35:15.509Z,11.1
2019-04-01T02:35:27.634Z,11.5
2019-04-01T02:35:40.782Z,11.5
2019-04-01T02:35:53.915Z,12.6
2019-04-01T02:36:06.076Z,13.3
2019-04-01T02:36:18.221Z,12.3
2019-04-01T02:36:30.341Z,8.7
2019-04-01T02:36:42.499Z,6.2
2019-04-01T02:36:54.651Z,5.7
2019-04-01T02:37:07.808Z,10.5
2019-04-01T02:37:19.938Z,13
2019-04-01T02:37:32.086Z,10.2
2019-04-01T02:37:44.213Z,8.3
2019-04-01T02:37:56.371Z,5.2
2019-04-01T02:38:09.501Z,9.8
2019-04-01T02:38:21.612Z,14.7
2019-04-01T02:38:34.783Z,11.3
2019-04-01T02:38:47.909Z,6.6
2019-04-01T02:39:00.038Z,8
2019-04-01T02:39:12.240Z,10
2019-04-01T02:39:24.455Z,9.2
2019-04-01T02:39:36.624Z,9.6
2019-04-01T02:39:48.733Z,11.2
2019-04-01T02:40:00.858Z,10.4
2019-04-01T02:40:12.994Z,11.2
2019-04-01T02:40:27.109Z,10.5
2019-04-01T02:40:40.212Z,10.3
2019-04-01T02:40:54.407Z,9.5
2019-04-01T02:41:06.519Z,7.7
2019-04-01T02:41:18.656Z,8.2
2019-04-01T02:41:33.778Z,9.3
2019-04-01T02:41:45.925Z,9.6
2019-04-01T02:41:58.046Z,9.9
2019-04-01T02:42:10.215Z,9.1
2019-04-01T02:42:22.406Z,12
2019-04-01T02:42:35.529Z,10.3
2019-04-01T02:42:47.664Z,10.8
2019-04-01T02:43:00.786Z,10
2019-04-01T02:43:12.924Z,10.4
2019-04-01T02:43:25.068Z,8.2
2019-04-01T02:43:37.211Z,10.4
2019-04-01T02:43:49.349Z,10.1
2019-04-01T02:44:01.509Z,10.2
2019-04-01T02:44:13.655Z,9.4
2019-04-01T02:44:25.823Z,8.5
2019-04-01T02:44:37.978Z,11.3
2019-04-01T02:44:51.096Z,11.9
2019-04-01T02:45:04.327Z,10.1
2019-04-01T02:45:16.475Z,11.6
2019-04-01T02:45:29.537Z,12.2
2019-04-01T02:45:42.690Z,8.4
2019-04-01T02:45:54.822Z,9.3
2019-04-01T02:46:06.979Z,8.9
2019-04-01T02:46:20.135Z,9.1
2019-04-01T02:46:32.274Z,8
2019-04-01T02:46:44.431Z,9.6
2019-04-01T02:46:56.566Z,8.4
2019-04-01T02:47:08.702Z,8.6
2019-04-01T02:47:20.875Z,9.3
2019-04-01T02:47:33.014Z,9.4
2019-04-01T02:47:45.155Z,10.9
2019-04-01T02:47:57.284Z,7.6